sensor_id;sensor_type;location;lat;lon;timestamp;P1;durP1;ratioP1;P2;durP2;ratioP2
21539;SDS011;10931;52.164;5.518;2023-03-01T01:07:01;3.65;;;2.00;;
21539;SDS011;10931;52.164;5.518;2023-03-01T01:09:58;3.72;;;2.55;;
21539;SDS011;10931;52.164;5.518;2023-03-01T01:12:49;3.20;;;2.10;;
21539;SDS011;10931;52.164;5.518;2023-03-01T01:15:54;4.32;;;2.45;;
21539;SDS011;10931;52.164;5.518;2023-03-01T01:19:05;4.18;;;2.20;;
21539;SDS011;10931;52.164;5.518;2023-03-01T01:25:51;3.78;;;2.20;;
21539;SDS011;10931;52.164;5.518;2023-03-01T01:29:03;3.13;;;2.10;;
21539;SDS011;10931;52.164;5.518;2023-03-01T01:35:51;3.55;;;2.10;;
21539;SDS011;10931;52.164;5.518;2023-03-01T04:46:28;2.92;;;1.65;;
21539;SDS011;10931;52.164;5.518;2023-03-01T04:48:54;2.60;;;1.60;;
21539;SDS011;10931;52.164;5.518;2023-03-01T04:51:43;3.00;;;1.70;;
21539;SDS011;10931;52.164;5.518;2023-03-01T04:54:11;2.92;;;1.60;;
21539;SDS011;10931;52.164;5.518;2023-03-01T04:59:38;2.70;;;1.52;;
21539;SDS011;10931;52.164;5.518;2023-03-01T05:05:37;2.10;;;1.30;;
21539;SDS011;10931;52.164;5.518;2023-03-01T05:08:31;2.47;;;1.38;;
21539;SDS011;10931;52.164;5.518;2023-03-01T05:11:10;2.17;;;1.35;;
21539;SDS011;10931;52.164;5.518;2023-03-01T05:14:02;2.63;;;1.33;;
21539;SDS011;10931;52.164;5.518;2023-03-01T05:20:21;2.15;;;1.45;;
21539;SDS011;10931;52.164;5.518;2023-03-01T05:23:07;1.83;;;1.40;;
21539;SDS011;10931;52.164;5.518;2023-03-01T05:28:57;2.85;;;1.58;;
21539;SDS011;10931;52.164;5.518;2023-03-01T05:31:58;2.75;;;1.55;;
21539;SDS011;10931;52.164;5.518;2023-03-01T05:34:27;2.67;;;1.48;;
21539;SDS011;10931;52.164;5.518;2023-03-01T05:37:17;2.17;;;1.10;;
21539;SDS011;10931;52.164;5.518;2023-03-01T07:39:50;2.15;;;1.50;;
21539;SDS011;10931;52.164;5.518;2023-03-01T07:42:22;3.35;;;1.80;;
21539;SDS011;10931;52.164;5.518;2023-03-01T07:44:47;3.30;;;1.75;;
21539;SDS011;10931;52.164;5.518;2023-03-01T07:47:36;2.17;;;1.50;;
21539;SDS011;10931;52.164;5.518;2023-03-01T07:50:02;2.70;;;1.58;;
21539;SDS011;10931;52.164;5.518;2023-03-01T07:52:36;3.22;;;1.63;;
21539;SDS011;10931;52.164;5.518;2023-03-01T07:55:15;2.05;;;1.40;;
21539;SDS011;10931;52.164;5.518;2023-03-01T07:57:45;3.05;;;1.60;;
21539;SDS011;10931;52.164;5.518;2023-03-01T08:00:13;2.65;;;1.63;;
21539;SDS011;10931;52.164;5.518;2023-03-01T08:02:42;3.20;;;1.77;;
21539;SDS011;10931;52.164;5.518;2023-03-01T08:05:12;6.30;;;2.13;;
21539;SDS011;10931;52.164;5.518;2023-03-01T08:07:50;2.35;;;1.80;;
21539;SDS011;10931;52.164;5.518;2023-03-01T08:10:15;2.42;;;1.67;;
21539;SDS011;10931;52.164;5.518;2023-03-01T08:12:44;2.50;;;1.52;;
21539;SDS011;10931;52.164;5.518;2023-03-01T08:15:15;3.08;;;1.50;;
21539;SDS011;10931;52.164;5.518;2023-03-01T08:24:09;1.85;;;1.20;;
21539;SDS011;10931;52.164;5.518;2023-03-01T08:26:41;2.60;;;1.60;;
21539;SDS011;10931;52.164;5.518;2023-03-01T08:29:12;3.05;;;1.80;;
21539;SDS011;10931;52.164;5.518;2023-03-01T08:31:41;2.67;;;1.48;;
21539;SDS011;10931;52.164;5.518;2023-03-01T08:34:13;2.20;;;1.38;;
21539;SDS011;10931;52.164;5.518;2023-03-01T08:36:43;3.28;;;1.38;;
21539;SDS011;10931;52.164;5.518;2023-03-01T08:39:11;2.35;;;1.40;;
21539;SDS011;10931;52.164;5.518;2023-03-01T08:41:39;2.20;;;1.50;;
21539;SDS011;10931;52.164;5.518;2023-03-01T08:44:05;2.45;;;1.35;;
21539;SDS011;10931;52.164;5.518;2023-03-01T08:46:38;1.77;;;1.30;;
21539;SDS011;10931;52.164;5.518;2023-03-01T08:49:10;1.88;;;1.45;;
21539;SDS011;10931;52.164;5.518;2023-03-01T08:51:41;1.77;;;1.30;;
21539;SDS011;10931;52.164;5.518;2023-03-01T08:54:17;2.45;;;1.35;;
21539;SDS011;10931;52.164;5.518;2023-03-01T08:56:45;1.85;;;1.15;;
21539;SDS011;10931;52.164;5.518;2023-03-01T08:59:12;1.58;;;1.25;;
21539;SDS011;10931;52.164;5.518;2023-03-01T09:01:51;2.40;;;1.40;;
21539;SDS011;10931;52.164;5.518;2023-03-01T09:04:30;2.45;;;1.38;;
21539;SDS011;10931;52.164;5.518;2023-03-01T09:07:01;1.50;;;1.00;;
21539;SDS011;10931;52.164;5.518;2023-03-01T09:09:27;1.83;;;1.20;;
21539;SDS011;10931;52.164;5.518;2023-03-01T09:14:54;1.60;;;1.25;;
21539;SDS011;10931;52.164;5.518;2023-03-01T09:17:22;2.70;;;1.52;;
21539;SDS011;10931;52.164;5.518;2023-03-01T09:19:55;1.77;;;1.10;;
21539;SDS011;10931;52.164;5.518;2023-03-01T09:22:21;2.45;;;1.30;;
21539;SDS011;10931;52.164;5.518;2023-03-01T09:24:47;1.20;;;1.00;;
21539;SDS011;10931;52.164;5.518;2023-03-01T09:27:13;2.10;;;1.40;;
21539;SDS011;10931;52.164;5.518;2023-03-01T09:29:53;4.10;;;1.20;;
21539;SDS011;10931;52.164;5.518;2023-03-01T09:32:21;2.40;;;1.38;;
21539;SDS011;10931;52.164;5.518;2023-03-01T09:34:53;2.20;;;1.17;;
21539;SDS011;10931;52.164;5.518;2023-03-01T09:37:34;1.77;;;1.17;;
21539;SDS011;10931;52.164;5.518;2023-03-01T09:40:01;1.20;;;0.98;;
21539;SDS011;10931;52.164;5.518;2023-03-01T09:42:32;2.22;;;1.13;;
21539;SDS011;10931;52.164;5.518;2023-03-01T09:45:02;1.75;;;1.10;;
21539;SDS011;10931;52.164;5.518;2023-03-01T09:47:36;1.45;;;0.90;;
21539;SDS011;10931;52.164;5.518;2023-03-01T09:50:06;1.65;;;1.05;;
21539;SDS011;10931;52.164;5.518;2023-03-01T09:52:40;1.33;;;0.90;;
21539;SDS011;10931;52.164;5.518;2023-03-01T09:55:29;2.90;;;0.95;;
21539;SDS011;10931;52.164;5.518;2023-03-01T09:58:06;1.98;;;1.13;;
21539;SDS011;10931;52.164;5.518;2023-03-01T10:00:56;1.92;;;1.40;;
21539;SDS011;10931;52.164;5.518;2023-03-01T10:09:05;1.92;;;1.15;;
21539;SDS011;10931;52.164;5.518;2023-03-01T10:11:38;2.75;;;1.10;;
21539;SDS011;10931;52.164;5.518;2023-03-01T10:14:23;2.95;;;1.00;;
21539;SDS011;10931;52.164;5.518;2023-03-01T10:17:04;2.65;;;1.10;;
21539;SDS011;10931;52.164;5.518;2023-03-01T10:19:43;1.30;;;0.73;;
21539;SDS011;10931;52.164;5.518;2023-03-01T10:22:13;1.40;;;0.77;;
21539;SDS011;10931;52.164;5.518;2023-03-01T10:24:52;1.58;;;0.80;;
21539;SDS011;10931;52.164;5.518;2023-03-01T10:27:28;2.40;;;0.90;;
21539;SDS011;10931;52.164;5.518;2023-03-01T10:30:22;1.05;;;0.90;;
21539;SDS011;10931;52.164;5.518;2023-03-01T10:33:13;1.75;;;0.90;;
21539;SDS011;10931;52.164;5.518;2023-03-01T10:35:47;1.83;;;1.00;;
21539;SDS011;10931;52.164;5.518;2023-03-01T10:38:16;1.48;;;0.80;;
21539;SDS011;10931;52.164;5.518;2023-03-01T10:40:55;1.75;;;0.93;;
21539;SDS011;10931;52.164;5.518;2023-03-01T10:43:26;2.05;;;1.00;;
21539;SDS011;10931;52.164;5.518;2023-03-01T10:46:16;2.08;;;0.93;;
21539;SDS011;10931;52.164;5.518;2023-03-01T10:51:34;1.52;;;0.90;;
21539;SDS011;10931;52.164;5.518;2023-03-01T10:54:17;1.63;;;0.90;;
21539;SDS011;10931;52.164;5.518;2023-03-01T10:56:59;1.83;;;0.88;;
21539;SDS011;10931;52.164;5.518;2023-03-01T11:02:02;2.42;;;0.90;;
21539;SDS011;10931;52.164;5.518;2023-03-01T11:04:34;1.33;;;0.88;;
21539;SDS011;10931;52.164;5.518;2023-03-01T11:07:02;2.05;;;0.80;;
21539;SDS011;10931;52.164;5.518;2023-03-01T11:09:44;1.48;;;0.88;;
21539;SDS011;10931;52.164;5.518;2023-03-01T11:12:14;1.38;;;0.90;;
21539;SDS011;10931;52.164;5.518;2023-03-01T11:14:59;1.52;;;0.80;;
21539;SDS011;10931;52.164;5.518;2023-03-01T11:17:28;1.17;;;0.90;;
21539;SDS011;10931;52.164;5.518;2023-03-01T11:20:00;1.50;;;0.82;;
21539;SDS011;10931;52.164;5.518;2023-03-01T11:22:42;1.60;;;0.80;;
21539;SDS011;10931;52.164;5.518;2023-03-01T11:25:30;0.90;;;0.60;;
21539;SDS011;10931;52.164;5.518;2023-03-01T11:28:10;2.03;;;0.80;;
21539;SDS011;10931;52.164;5.518;2023-03-01T11:33:44;0.93;;;0.60;;
21539;SDS011;10931;52.164;5.518;2023-03-01T11:36:48;2.33;;;1.00;;
21539;SDS011;10931;52.164;5.518;2023-03-01T11:39:31;1.38;;;0.80;;
21539;SDS011;10931;52.164;5.518;2023-03-01T11:42:06;1.70;;;0.95;;
21539;SDS011;10931;52.164;5.518;2023-03-01T11:45:02;1.42;;;0.90;;
21539;SDS011;10931;52.164;5.518;2023-03-01T12:06:28;1.23;;;0.80;;
21539;SDS011;10931;52.164;5.518;2023-03-01T12:21:24;1.00;;;0.73;;
21539;SDS011;10931;52.164;5.518;2023-03-01T12:24:12;1.23;;;0.75;;
21539;SDS011;10931;52.164;5.518;2023-03-01T12:30:13;1.02;;;0.70;;
21539;SDS011;10931;52.164;5.518;2023-03-01T12:42:32;3.97;;;1.63;;
21539;SDS011;10931;52.164;5.518;2023-03-01T12:48:31;4.10;;;1.55;;
21539;SDS011;10931;52.164;5.518;2023-03-01T12:51:11;1.92;;;1.08;;
21539;SDS011;10931;52.164;5.518;2023-03-01T12:53:53;4.35;;;1.60;;
21539;SDS011;10931;52.164;5.518;2023-03-01T12:56:34;4.18;;;1.20;;
21539;SDS011;10931;52.164;5.518;2023-03-01T13:05:01;2.95;;;1.17;;
21539;SDS011;10931;52.164;5.518;2023-03-01T13:11:05;4.35;;;1.17;;
21539;SDS011;10931;52.164;5.518;2023-03-01T13:13:52;4.80;;;1.10;;
21539;SDS011;10931;52.164;5.518;2023-03-01T13:16:51;1.77;;;1.00;;
21539;SDS011;10931;52.164;5.518;2023-03-01T13:20:11;2.35;;;0.90;;
21539;SDS011;10931;52.164;5.518;2023-03-01T13:22:39;1.35;;;0.90;;
21539;SDS011;10931;52.164;5.518;2023-03-01T13:25:26;3.72;;;0.95;;
21539;SDS011;10931;52.164;5.518;2023-03-01T13:34:42;3.20;;;1.13;;
21539;SDS011;10931;52.164;5.518;2023-03-01T13:37:18;4.38;;;1.33;;
21539;SDS011;10931;52.164;5.518;2023-03-01T13:39:56;4.50;;;1.33;;
21539;SDS011;10931;52.164;5.518;2023-03-01T13:46:20;7.13;;;1.23;;
21539;SDS011;10931;52.164;5.518;2023-03-01T13:48:53;2.80;;;1.00;;
21539;SDS011;10931;52.164;5.518;2023-03-01T13:51:30;6.05;;;1.30;;
21539;SDS011;10931;52.164;5.518;2023-03-01T13:54:09;2.60;;;0.80;;
21539;SDS011;10931;52.164;5.518;2023-03-01T13:56:40;2.17;;;0.88;;
21539;SDS011;10931;52.164;5.518;2023-03-01T13:59:13;2.67;;;1.05;;
21539;SDS011;10931;52.164;5.518;2023-03-01T14:02:02;2.05;;;1.10;;
21539;SDS011;10931;52.164;5.518;2023-03-01T14:04:29;2.10;;;0.90;;
21539;SDS011;10931;52.164;5.518;2023-03-01T14:10:31;3.15;;;1.00;;
21539;SDS011;10931;52.164;5.518;2023-03-01T14:19:57;2.22;;;0.88;;
21539;SDS011;10931;52.164;5.518;2023-03-01T14:22:44;2.03;;;0.90;;
21539;SDS011;10931;52.164;5.518;2023-03-01T14:28:33;3.35;;;1.35;;
21539;SDS011;10931;52.164;5.518;2023-03-01T14:31:29;1.40;;;0.80;;
21539;SDS011;10931;52.164;5.518;2023-03-01T14:36:57;1.08;;;0.60;;
21539;SDS011;10931;52.164;5.518;2023-03-01T14:39:51;2.55;;;0.82;;
21539;SDS011;10931;52.164;5.518;2023-03-01T14:43:28;4.00;;;0.85;;
21539;SDS011;10931;52.164;5.518;2023-03-01T14:49:24;1.35;;;0.82;;
21539;SDS011;10931;52.164;5.518;2023-03-01T14:52:31;1.85;;;0.68;;
21539;SDS011;10931;52.164;5.518;2023-03-01T14:55:04;2.05;;;0.70;;
21539;SDS011;10931;52.164;5.518;2023-03-01T14:58:15;0.88;;;0.50;;
21539;SDS011;10931;52.164;5.518;2023-03-01T15:00:50;4.00;;;0.80;;
21539;SDS011;10931;52.164;5.518;2023-03-01T15:06:52;5.10;;;1.13;;
21539;SDS011;10931;52.164;5.518;2023-03-01T15:09:27;1.42;;;0.80;;
21539;SDS011;10931;52.164;5.518;2023-03-01T15:12:04;2.63;;;0.70;;
21539;SDS011;10931;52.164;5.518;2023-03-01T15:15:00;4.68;;;0.80;;
21539;SDS011;10931;52.164;5.518;2023-03-01T15:17:55;1.58;;;0.70;;
21539;SDS011;10931;52.164;5.518;2023-03-01T15:23:54;5.68;;;0.90;;
21539;SDS011;10931;52.164;5.518;2023-03-01T15:27:04;1.27;;;0.68;;
21539;SDS011;10931;52.164;5.518;2023-03-01T15:29:50;1.10;;;0.60;;
21539;SDS011;10931;52.164;5.518;2023-03-01T15:32:34;2.08;;;0.68;;
21539;SDS011;10931;52.164;5.518;2023-03-01T15:44:15;1.42;;;0.70;;
21539;SDS011;10931;52.164;5.518;2023-03-01T15:47:24;2.97;;;0.80;;
21539;SDS011;10931;52.164;5.518;2023-03-01T15:49:54;1.23;;;0.80;;
21539;SDS011;10931;52.164;5.518;2023-03-01T15:55:05;2.70;;;0.50;;
21539;SDS011;10931;52.164;5.518;2023-03-01T15:57:49;2.20;;;0.70;;
21539;SDS011;10931;52.164;5.518;2023-03-01T16:00:34;1.45;;;0.65;;
21539;SDS011;10931;52.164;5.518;2023-03-01T16:03:03;2.03;;;0.77;;
21539;SDS011;10931;52.164;5.518;2023-03-01T16:05:34;1.90;;;0.63;;
21539;SDS011;10931;52.164;5.518;2023-03-01T16:08:01;1.48;;;0.80;;
21539;SDS011;10931;52.164;5.518;2023-03-01T16:10:28;1.05;;;0.60;;
21539;SDS011;10931;52.164;5.518;2023-03-01T16:12:55;2.85;;;0.80;;
21539;SDS011;10931;52.164;5.518;2023-03-01T16:15:28;1.65;;;0.75;;
21539;SDS011;10931;52.164;5.518;2023-03-01T16:17:59;1.77;;;0.50;;
21539;SDS011;10931;52.164;5.518;2023-03-01T16:20:28;1.10;;;0.63;;
21539;SDS011;10931;52.164;5.518;2023-03-01T16:22:58;2.05;;;0.60;;
21539;SDS011;10931;52.164;5.518;2023-03-01T16:25:30;2.90;;;0.68;;
21539;SDS011;10931;52.164;5.518;2023-03-01T16:28:01;1.20;;;0.82;;
21539;SDS011;10931;52.164;5.518;2023-03-01T16:30:29;1.55;;;0.57;;
21539;SDS011;10931;52.164;5.518;2023-03-01T16:32:59;3.53;;;0.60;;
21539;SDS011;10931;52.164;5.518;2023-03-01T16:35:25;2.00;;;0.68;;
21539;SDS011;10931;52.164;5.518;2023-03-01T16:38:02;0.85;;;0.57;;
21539;SDS011;10931;52.164;5.518;2023-03-01T16:40:30;2.38;;;0.52;;
21539;SDS011;10931;52.164;5.518;2023-03-01T16:45:50;1.15;;;0.82;;
21539;SDS011;10931;52.164;5.518;2023-03-01T16:48:35;2.63;;;0.52;;
21539;SDS011;10931;52.164;5.518;2023-03-01T16:51:04;1.23;;;0.50;;
21539;SDS011;10931;52.164;5.518;2023-03-01T16:53:32;0.98;;;0.50;;
21539;SDS011;10931;52.164;5.518;2023-03-01T16:56:01;0.93;;;0.68;;
21539;SDS011;10931;52.164;5.518;2023-03-01T16:58:32;3.80;;;0.85;;
21539;SDS011;10931;52.164;5.518;2023-03-01T17:01:16;0.60;;;0.47;;
21539;SDS011;10931;52.164;5.518;2023-03-01T17:03:57;0.70;;;0.60;;
21539;SDS011;10931;52.164;5.518;2023-03-01T17:06:23;3.10;;;0.63;;
21539;SDS011;10931;52.164;5.518;2023-03-01T17:08:51;1.50;;;0.70;;
21539;SDS011;10931;52.164;5.518;2023-03-01T17:11:18;0.70;;;0.50;;
21539;SDS011;10931;52.164;5.518;2023-03-01T17:13:45;0.80;;;0.60;;
21539;SDS011;10931;52.164;5.518;2023-03-01T17:16:12;0.95;;;0.60;;
21539;SDS011;10931;52.164;5.518;2023-03-01T17:18:40;1.08;;;0.60;;
21539;SDS011;10931;52.164;5.518;2023-03-01T17:21:07;0.55;;;0.55;;
21539;SDS011;10931;52.164;5.518;2023-03-01T17:23:33;0.73;;;0.57;;
21539;SDS011;10931;52.164;5.518;2023-03-01T17:26:01;1.55;;;0.70;;
21539;SDS011;10931;52.164;5.518;2023-03-01T17:28:28;0.88;;;0.60;;
21539;SDS011;10931;52.164;5.518;2023-03-01T17:31:05;2.00;;;0.55;;
21539;SDS011;10931;52.164;5.518;2023-03-01T17:33:31;1.15;;;0.60;;
21539;SDS011;10931;52.164;5.518;2023-03-01T17:36:06;1.83;;;0.60;;
21539;SDS011;10931;52.164;5.518;2023-03-01T17:38:32;1.25;;;0.60;;
21539;SDS011;10931;52.164;5.518;2023-03-01T17:41:00;2.05;;;0.52;;
21539;SDS011;10931;52.164;5.518;2023-03-01T17:43:29;1.30;;;0.70;;
21539;SDS011;10931;52.164;5.518;2023-03-01T17:46:02;1.27;;;0.70;;
21539;SDS011;10931;52.164;5.518;2023-03-01T17:48:33;1.38;;;0.60;;
21539;SDS011;10931;52.164;5.518;2023-03-01T17:51:06;2.17;;;0.50;;
21539;SDS011;10931;52.164;5.518;2023-03-01T17:53:33;0.85;;;0.60;;
21539;SDS011;10931;52.164;5.518;2023-03-01T17:56:00;0.60;;;0.50;;
21539;SDS011;10931;52.164;5.518;2023-03-01T17:58:27;2.08;;;0.77;;
21539;SDS011;10931;52.164;5.518;2023-03-01T18:00:53;0.80;;;0.50;;
21539;SDS011;10931;52.164;5.518;2023-03-01T18:03:19;1.40;;;0.60;;
21539;SDS011;10931;52.164;5.518;2023-03-01T18:05:46;1.27;;;0.60;;
21539;SDS011;10931;52.164;5.518;2023-03-01T18:08:12;0.88;;;0.60;;
21539;SDS011;10931;52.164;5.518;2023-03-01T18:10:43;1.73;;;0.70;;
21539;SDS011;10931;52.164;5.518;2023-03-01T18:13:09;1.67;;;0.70;;
21539;SDS011;10931;52.164;5.518;2023-03-01T18:15:38;1.73;;;0.60;;
21539;SDS011;10931;52.164;5.518;2023-03-01T18:18:04;0.98;;;0.50;;
21539;SDS011;10931;52.164;5.518;2023-03-01T18:20:30;1.55;;;0.70;;
21539;SDS011;10931;52.164;5.518;2023-03-01T18:23:24;0.98;;;0.50;;
21539;SDS011;10931;52.164;5.518;2023-03-01T18:26:05;0.70;;;0.50;;
21539;SDS011;10931;52.164;5.518;2023-03-01T18:28:35;1.80;;;0.63;;
21539;SDS011;10931;52.164;5.518;2023-03-01T18:31:04;1.13;;;0.70;;
21539;SDS011;10931;52.164;5.518;2023-03-01T18:33:35;1.48;;;0.60;;
21539;SDS011;10931;52.164;5.518;2023-03-01T18:36:12;1.10;;;0.60;;
21539;SDS011;10931;52.164;5.518;2023-03-01T18:38:44;0.93;;;0.65;;
21539;SDS011;10931;52.164;5.518;2023-03-01T18:41:10;1.65;;;0.65;;
21539;SDS011;10931;52.164;5.518;2023-03-01T18:43:36;1.42;;;0.60;;
21539;SDS011;10931;52.164;5.518;2023-03-01T18:46:05;0.68;;;0.50;;
21539;SDS011;10931;52.164;5.518;2023-03-01T18:48:32;1.35;;;0.70;;
21539;SDS011;10931;52.164;5.518;2023-03-01T18:51:22;1.40;;;0.75;;
21539;SDS011;10931;52.164;5.518;2023-03-01T18:53:56;0.60;;;0.50;;
21539;SDS011;10931;52.164;5.518;2023-03-01T18:56:31;0.85;;;0.63;;
21539;SDS011;10931;52.164;5.518;2023-03-01T18:59:08;2.20;;;0.80;;
21539;SDS011;10931;52.164;5.518;2023-03-01T19:01:41;1.55;;;0.93;;
21539;SDS011;10931;52.164;5.518;2023-03-01T20:00:12;1.45;;;0.63;;
21539;SDS011;10931;52.164;5.518;2023-03-01T23:18:45;2.80;;;1.48;;
21539;SDS011;10931;52.164;5.518;2023-03-01T23:21:13;2.10;;;1.38;;
21539;SDS011;10931;52.164;5.518;2023-03-01T23:23:43;2.45;;;1.50;;
21539;SDS011;10931;52.164;5.518;2023-03-01T23:26:12;2.47;;;1.27;;
21539;SDS011;10931;52.164;5.518;2023-03-01T23:28:39;1.70;;;1.30;;
21539;SDS011;10931;52.164;5.518;2023-03-01T23:31:05;2.10;;;1.50;;
21539;SDS011;10931;52.164;5.518;2023-03-01T23:33:40;2.58;;;1.42;;
21539;SDS011;10931;52.164;5.518;2023-03-01T23:36:22;2.42;;;1.30;;
21539;SDS011;10931;52.164;5.518;2023-03-01T23:38:57;1.60;;;1.30;;
21539;SDS011;10931;52.164;5.518;2023-03-01T23:41:31;3.20;;;1.58;;
21539;SDS011;10931;52.164;5.518;2023-03-01T23:43:59;2.35;;;1.20;;
21539;SDS011;10931;52.164;5.518;2023-03-01T23:46:32;3.42;;;1.52;;
21539;SDS011;10931;52.164;5.518;2023-03-01T23:49:08;1.95;;;1.30;;
21539;SDS011;10931;52.164;5.518;2023-03-01T23:51:42;2.47;;;1.40;;
21539;SDS011;10931;52.164;5.518;2023-03-01T23:54:08;2.45;;;1.60;;
21539;SDS011;10931;52.164;5.518;2023-03-01T23:56:39;3.17;;;1.52;;
21539;SDS011;10931;52.164;5.518;2023-03-01T23:59:11;2.42;;;1.58;;
